Sweetser, IN (46987)

2:01 AM EDT on July 27, 2016 (GMT -0400)
Middlesworth | | Change Station

Elev 856 ft 40.52 °N, 85.76 °W | Updated 57 seconds ago

Mostly Cloudy
Mostly Cloudy
66.7 °F
Feels Like 66.7 °F
N
1.1
Wind Variable Wind from SE
Gusts 1.1 mph

Today
High -- | Low -- °F
--% Chance of Precip.
Yesterday
High -- | Low -- °F
Precip. -- in
Pressure 30.03 in
Visibility 10.0 miles
Clouds Mostly Cloudy 6000 ft
Dew Point 65 °F
Humidity 93%
Rainfall 0.00 in
Snow Depth Not available.
6:35 AM 9:02 PM
Waning Gibbous, 47% visible
METAR KMZZ 270555Z AUTO 00000KT 10SM BKN060 18/18 A3003 RMK AO2 T01800175 10320 20152 403200152
Pressure 30.03 in
Visibility 10.0 miles
Clouds Mostly Cloudy 6000 ft
Dew Point 65 °F
Humidity 93%
Rainfall 0.00 in
Snow Depth Not available.
6:35 AM 9:02 PM
Waning Gibbous, 47% visible
METAR KMZZ 270555Z AUTO 00000KT 10SM BKN060 18/18 A3003 RMK AO2 T01800175 10320 20152 403200152

10-Day Weather Forecast

Almanac

Astronomy

Jul. 27, 2016 Rise Set
Actual Time
Civil Twilight
Nautical Twilight
Astronomical Twilight
Moon
Length of Visible Light
Length of Day
Tomorrow will be .
, % of the Moon is Illuminated

Today's Extremes

State Highs State Lows

Community

WunderPhotos

Upload Photos

1,927,818 photos uploaded!

WunderBlog® & News

Nearby

Air Quality

  Air Quality AQ Index Pollutant
Not available.

Snow Depth

Station Depth Elevation

Earthquake Activity

City Distance Mag. Time & Date
Minimum magnitude displayed is 2.5.

Coastal Water Temperatures

Place Temperature

Stations

Nearby Weather Stations

Station Location Temp. Windchill Dew Point Humidity Wind Precip. Elev Updated Type
                   

Watches & Warnings

There are currently no watches in effect.